Time;durP1;ratioP1;P1;durP2;ratioP2;P2;SDS_P1;SDS_P2;PMS_P1;PMS_P2;Temp;Humidity;BMP_temperature;BMP_pressure;BME280_temperature;BME280_humidity;BME280_pressure;Samples;Min_cycle;Max_cycle;Signal;HPM_P1;HPM_P2
2022/02/06 00:00:09;;;;;;;4.57;1.60;;;5.80;76.70;;;;;;5005573;28;20118;-64
2022/02/06 00:02:39;;;;;;;2.30;0.80;;;5.80;76.70;;;;;;5009110;28;20585;-64
2022/02/06 00:05:10;;;;;;;2.87;1.00;;;5.90;76.50;;;;;;5010631;28;20041;-63
2022/02/06 00:07:47;;;;;;;5.22;0.98;;;5.90;76.40;;;;;;5008832;28;20480;-65
2022/02/06 00:10:14;;;;;;;1.95;0.90;;;5.90;76.50;;;;;;5012898;28;20041;-65
2022/02/06 00:12:41;;;;;;;5.53;0.93;;;5.80;76.40;;;;;;5013652;28;20071;-64
2022/02/06 00:15:09;;;;;;;2.47;1.15;;;5.90;76.40;;;;;;5015867;28;20068;-65
2022/02/06 00:17:36;;;;;;;4.50;1.00;;;5.90;76.40;;;;;;5015713;28;20100;-65
2022/02/06 00:20:05;;;;;;;2.28;1.20;;;5.90;76.40;;;;;;5015731;28;20527;-64
2022/02/06 00:22:38;;;;;;;2.28;0.75;;;5.80;76.60;;;;;;5015631;28;20048;-64
2022/02/06 00:25:19;;;;;;;4.70;0.80;;;5.90;76.40;;;;;;5016858;28;20041;-63
2022/02/06 00:27:59;;;;;;;5.50;0.93;;;5.90;76.50;;;;;;5013245;28;20038;-65
2022/02/06 00:30:44;;;;;;;2.92;0.40;;;5.80;76.60;;;;;;2719376;28;10004109;-65
2022/02/06 00:33:18;;;;;;;1.90;0.60;;;5.90;76.50;;;;;;3284634;28;10001873;-66
2022/02/06 00:35:59;;;;;;;5.20;0.88;;;5.90;76.60;;;;;;5013980;28;20049;-64
2022/02/06 00:38:34;;;;;;;4.68;1.02;;;5.90;76.40;;;;;;5011039;28;20038;-65
2022/02/06 00:41:14;;;;;;;3.58;1.25;;;5.90;76.50;;;;;;5011784;28;20049;-64
2022/02/06 00:43:42;;;;;;;1.67;0.68;;;5.90;76.50;;;;;;5015202;28;20186;-63
2022/02/06 00:46:12;;;;;;;2.38;1.10;;;5.90;76.40;;;;;;5012949;28;20052;-63
2022/02/06 00:48:42;;;;;;;3.53;0.87;;;5.90;76.40;;;;;;5014732;28;20049;-63
2022/02/06 00:51:13;;;;;;;1.63;0.73;;;5.90;76.30;;;;;;5009836;28;20485;-63
2022/02/06 00:53:43;;;;;;;3.13;0.68;;;5.90;76.30;;;;;;5010621;28;20037;-63
2022/02/06 00:56:11;;;;;;;3.22;1.00;;;5.90;76.30;;;;;;5016322;28;20044;-64
2022/02/06 00:58:38;;;;;;;2.08;0.77;;;5.90;76.30;;;;;;5015644;28;20041;-64
2022/02/06 01:01:05;;;;;;;4.28;0.82;;;6.00;76.30;;;;;;5010763;28;20072;-63
2022/02/06 01:03:33;;;;;;;1.27;0.55;;;6.00;76.10;;;;;;5015998;28;20121;-63
2022/02/06 01:06:00;;;;;;;2.88;0.70;;;6.00;76.10;;;;;;5015868;28;20383;-63
2022/02/06 01:08:27;;;;;;;2.97;0.88;;;6.00;76.20;;;;;;5014363;28;20052;-66
2022/02/06 01:10:55;;;;;;;2.90;0.75;;;6.00;76.20;;;;;;5014079;28;20041;-64
2022/02/06 01:13:27;;;;;;;2.45;0.98;;;6.00;76.10;;;;;;5007938;28;20117;-64
2022/02/06 01:15:59;;;;;;;2.33;0.50;;;6.00;76.20;;;;;;5008971;28;20395;-64
2022/02/06 01:18:33;;;;;;;1.63;0.68;;;6.00;76.10;;;;;;5015202;28;20049;-64
2022/02/06 01:21:05;;;;;;;1.73;0.70;;;6.00;76.20;;;;;;5014990;28;20034;-64
2022/02/06 01:23:42;;;;;;;1.10;0.45;;;6.00;76.20;;;;;;5014331;28;20530;-63
2022/02/06 01:26:20;;;;;;;3.03;1.13;;;5.90;76.20;;;;;;5013839;28;20052;-64
2022/02/06 01:28:53;;;;;;;3.28;0.80;;;6.00;76.30;;;;;;5001664;28;20037;-63
2022/02/06 01:31:37;;;;;;;1.15;0.60;;;6.00;76.10;;;;;;5004209;28;20224;-66
2022/02/06 01:34:05;;;;;;;4.32;0.60;;;6.00;76.10;;;;;;5007980;28;20045;-64
2022/02/06 01:36:40;;;;;;;2.13;0.60;;;6.00;76.20;;;;;;5005224;28;20159;-63
2022/02/06 01:39:16;;;;;;;3.67;0.85;;;6.00;76.30;;;;;;4998794;28;20053;-65
2022/02/06 01:41:49;;;;;;;1.52;0.63;;;6.00;76.40;;;;;;5005936;28;20045;-65
2022/02/06 01:44:28;;;;;;;4.78;0.65;;;6.00;76.30;;;;;;5013148;28;20147;-65
2022/02/06 01:57:20;;;;;;;5.65;0.90;;;6.00;76.20;;;;;;5012624;28;20301;-63
2022/02/06 02:03:40;;;;;;;1.30;0.40;;;6.00;76.50;;;;;;5007370;28;20369;-65
2022/02/06 02:06:34;;;;;;;1.75;0.70;;;6.00;76.70;;;;;;5007757;28;20131;-66
2022/02/06 02:14:56;;;;;;;1.48;0.45;;;6.00;77.40;;;;;;5013212;28;20037;-63
2022/02/06 02:17:45;;;;;;;2.42;0.47;;;6.10;77.70;;;;;;5025423;28;20533;-63
2022/02/06 02:23:27;;;;;;;2.80;0.77;;;6.00;78.30;;;;;;4957357;28;20757;-63
2022/02/06 02:43:29;;;;;;;3.33;0.90;;;5.90;79.30;;;;;;5000108;28;20057;-64
2022/02/06 02:46:06;;;;;;;3.50;0.93;;;5.90;79.50;;;;;;5010750;28;20554;-64
2022/02/06 02:48:34;;;;;;;3.47;1.10;;;5.90;79.70;;;;;;5009961;28;20041;-65
2022/02/06 02:51:05;;;;;;;3.17;0.95;;;5.90;79.90;;;;;;5004414;28;20046;-63
2022/02/06 02:53:37;;;;;;;1.50;0.47;;;5.90;79.90;;;;;;5005870;28;20680;-65
2022/02/06 02:56:18;;;;;;;2.53;0.77;;;5.90;80.00;;;;;;5005424;28;20125;-64
2022/02/06 02:58:53;;;;;;;5.38;0.77;;;5.90;80.00;;;;;;5003437;28;20049;-65
2022/02/06 03:01:27;;;;;;;3.45;0.80;;;5.90;80.10;;;;;;5004250;28;20056;-64
2022/02/06 03:03:56;;;;;;;3.50;1.20;;;5.90;80.30;;;;;;5006225;28;20120;-64
2022/02/06 03:06:23;;;;;;;2.80;0.50;;;5.90;80.40;;;;;;5006809;28;20476;-66
2022/02/06 03:08:51;;;;;;;4.57;0.88;;;5.90;80.40;;;;;;5005785;28;20053;-64
2022/02/06 03:11:26;;;;;;;3.90;0.73;;;5.90;80.40;;;;;;5005081;28;20045;-67
2022/02/06 03:14:01;;;;;;;4.55;1.13;;;5.90;80.50;;;;;;5010753;28;20106;-65
2022/02/06 03:16:35;;;;;;;3.03;0.73;;;5.90;80.50;;;;;;5011326;28;20767;-65
2022/02/06 03:19:09;;;;;;;3.07;1.07;;;5.90;80.50;;;;;;5008154;28;20690;-65
2022/02/06 03:21:36;;;;;;;4.35;0.77;;;5.90;80.60;;;;;;5012992;28;20049;-63
2022/02/06 03:24:24;;;;;;;2.60;0.70;;;5.90;80.60;;;;;;5006093;28;20079;-64
2022/02/06 03:26:53;;;;;;;2.97;0.80;;;5.90;80.70;;;;;;5012009;28;20814;-64
2022/02/06 03:29:22;;;;;;;3.95;0.90;;;5.90;80.70;;;;;;5012662;28;20046;-64
2022/02/06 03:31:50;;;;;;;1.60;0.70;;;5.90;80.70;;;;;;5012280;28;20076;-65
2022/02/06 03:34:18;;;;;;;2.63;0.57;;;5.90;80.90;;;;;;5010866;28;20794;-65
2022/02/06 03:36:45;;;;;;;3.17;0.77;;;5.90;80.90;;;;;;5009595;28;20136;-65
2022/02/06 03:39:12;;;;;;;2.55;0.63;;;5.90;80.90;;;;;;5011033;28;20067;-65
2022/02/06 03:41:52;;;;;;;2.00;0.80;;;5.90;80.90;;;;;;5011173;28;20116;-64
2022/02/06 03:44:28;;;;;;;2.63;0.55;;;5.90;80.80;;;;;;5010927;28;20159;-65
2022/02/06 03:47:06;;;;;;;2.17;0.68;;;5.90;80.80;;;;;;5011169;28;20874;-64
2022/02/06 03:49:45;;;;;;;3.72;0.82;;;5.90;80.80;;;;;;5011738;28;20047;-65
2022/02/06 03:52:11;;;;;;;4.75;1.17;;;5.90;80.70;;;;;;5013502;28;20049;-65
2022/02/06 03:54:38;;;;;;;2.85;1.02;;;6.00;80.70;;;;;;5012329;28;20041;-64
2022/02/06 03:57:06;;;;;;;3.95;0.85;;;5.90;80.60;;;;;;5012386;28;20057;-63
2022/02/06 03:59:35;;;;;;;1.20;0.57;;;6.00;80.50;;;;;;5013062;28;20049;-65
2022/02/06 04:02:03;;;;;;;1.65;0.98;;;6.00;80.40;;;;;;5009680;28;20061;-64
2022/02/06 04:04:31;;;;;;;4.95;1.15;;;6.00;80.40;;;;;;5013585;28;20045;-64
2022/02/06 04:07:04;;;;;;;3.15;0.80;;;6.10;80.20;;;;;;5013637;28;20121;-65
2022/02/06 04:09:36;;;;;;;1.73;0.65;;;6.00;80.20;;;;;;5012850;28;20041;-65
2022/02/06 04:12:04;;;;;;;2.67;0.90;;;6.10;80.10;;;;;;5009768;28;20048;-63
2022/02/06 04:14:41;;;;;;;4.47;0.55;;;6.10;80.00;;;;;;5016136;28;20060;-63
2022/02/06 04:17:19;;;;;;;1.80;0.50;;;6.00;80.00;;;;;;5014865;28;20064;-64
2022/02/06 04:19:46;;;;;;;1.83;0.68;;;6.10;80.00;;;;;;5015924;28;20049;-63
2022/02/06 04:22:14;;;;;;;2.15;0.68;;;6.10;79.90;;;;;;5016643;28;20052;-66
2022/02/06 04:24:41;;;;;;;8.40;1.15;;;6.10;79.80;;;;;;5016602;28;20692;-64
2022/02/06 04:27:08;;;;;;;2.70;0.80;;;6.00;79.80;;;;;;5016016;28;20511;-64
2022/02/06 04:29:39;;;;;;;2.05;0.45;;;6.10;79.80;;;;;;4673436;28;10001057;-64
2022/02/06 04:32:07;;;;;;;3.83;0.82;;;6.10;79.70;;;;;;689674;28;10002183;-64
2022/02/06 04:34:36;;;;;;;3.13;0.90;;;6.10;79.70;;;;;;5016337;28;20045;-64
2022/02/06 04:37:10;;;;;;;6.10;0.75;;;6.10;79.60;;;;;;5015541;28;20136;-63
2022/02/06 04:39:58;;;;;;;2.42;0.65;;;6.10;79.50;;;;;;5016133;28;20462;-63
2022/02/06 04:42:39;;;;;;;6.15;0.63;;;6.10;79.60;;;;;;5015903;28;20108;-65
2022/02/06 04:48:16;;;;;;;2.05;0.80;;;6.20;79.50;;;;;;5002022;28;20055;-63
2022/02/06 04:53:56;;;;;;;3.05;0.60;;;6.10;79.50;;;;;;5011892;28;20053;-64
2022/02/06 05:15:53;;;;;;;3.00;0.50;;;6.20;79.10;;;;;;4988035;28;20045;-65
2022/02/06 05:18:46;;;;;;;2.45;0.40;;;6.20;79.10;;;;;;4987768;28;20507;-63
2022/02/06 05:26:59;;;;;;;1.58;0.70;;;6.20;78.90;;;;;;4970145;28;20061;-66
2022/02/06 05:29:34;;;;;;;1.02;0.47;;;6.30;78.90;;;;;;4989371;28;20046;-63
2022/02/06 05:32:14;;;;;;;2.40;0.70;;;6.30;78.80;;;;;;4996311;28;20042;-63
2022/02/06 05:34:41;;;;;;;4.53;1.20;;;6.20;78.80;;;;;;4996168;28;20057;-62
2022/02/06 05:37:08;;;;;;;3.50;1.67;;;6.30;78.70;;;;;;4994684;28;20065;-63
2022/02/06 05:39:36;;;;;;;2.08;0.50;;;6.40;78.60;;;;;;4994217;28;20046;-64
2022/02/06 05:42:04;;;;;;;3.22;0.60;;;6.30;78.60;;;;;;4990081;28;20057;-63
2022/02/06 05:44:32;;;;;;;2.03;0.77;;;6.40;78.70;;;;;;4989943;28;20116;-62
2022/02/06 05:46:59;;;;;;;0.82;0.40;;;6.30;78.80;;;;;;4987237;28;20124;-63
2022/02/06 05:49:25;;;;;;;1.92;0.57;;;6.30;78.80;;;;;;4987881;28;20046;-63
2022/02/06 05:51:52;;;;;;;1.73;0.47;;;6.40;78.70;;;;;;4985143;28;20065;-63
2022/02/06 05:54:19;;;;;;;6.43;1.25;;;6.40;78.60;;;;;;4990390;28;20487;-63
2022/02/06 05:56:48;;;;;;;2.22;0.70;;;6.40;78.80;;;;;;4988007;28;20085;-65
2022/02/06 05:59:15;;;;;;;3.30;1.15;;;6.40;79.00;;;;;;4986580;28;20054;-63
2022/02/06 06:01:42;;;;;;;2.65;1.08;;;6.40;79.10;;;;;;5003624;28;20067;-63
2022/02/06 06:04:08;;;;;;;1.73;0.63;;;6.40;79.30;;;;;;5012925;28;20060;-63
2022/02/06 06:06:36;;;;;;;2.90;0.70;;;6.40;79.30;;;;;;5011816;28;20052;-62
2022/02/06 06:09:05;;;;;;;3.08;0.85;;;6.40;79.50;;;;;;5012481;28;20120;-64
2022/02/06 06:11:32;;;;;;;3.50;0.68;;;6.30;79.50;;;;;;5012508;28;20388;-63
2022/02/06 06:14:00;;;;;;;3.33;0.50;;;6.40;79.30;;;;;;5011435;28;20052;-64
2022/02/06 06:16:28;;;;;;;2.22;0.55;;;6.30;79.50;;;;;;5014333;28;20037;-63
2022/02/06 06:18:55;;;;;;;3.40;1.00;;;6.30;79.60;;;;;;5014058;28;20049;-64
2022/02/06 06:21:25;;;;;;;4.13;1.00;;;6.40;79.70;;;;;;5014134;28;20567;-63
2022/02/06 06:23:54;;;;;;;2.03;0.88;;;6.40;79.70;;;;;;5014818;28;20502;-64
2022/02/06 06:26:22;;;;;;;2.72;0.95;;;6.40;79.50;;;;;;5009245;28;20165;-63
2022/02/06 06:28:49;;;;;;;1.05;0.50;;;6.40;79.60;;;;;;4960795;28;20184;-66
2022/02/06 06:31:36;;;;;;;1.67;0.86;;;6.40;79.50;;;;;;2956756;28;10153614;-64
2022/02/06 06:34:03;;;;;;;5.15;0.80;;;6.40;79.50;;;;;;3282576;28;10001128;-63
2022/02/06 06:36:32;;;;;;;2.00;0.70;;;6.40;79.50;;;;;;5009687;28;20216;-64
2022/02/06 06:38:59;;;;;;;3.50;0.60;;;6.40;79.40;;;;;;5009301;28;20050;-65
2022/02/06 06:41:25;;;;;;;3.92;1.10;;;6.50;79.30;;;;;;5012267;28;20049;-64
2022/02/06 06:43:52;;;;;;;1.25;0.63;;;6.50;79.20;;;;;;5011887;28;20049;-63
2022/02/06 06:46:19;;;;;;;3.80;1.05;;;6.40;79.20;;;;;;5010158;28;20411;-65
2022/02/06 06:48:48;;;;;;;2.90;0.75;;;6.50;79.10;;;;;;5008743;28;20053;-65
2022/02/06 06:51:15;;;;;;;1.67;0.45;;;6.60;79.00;;;;;;5007308;28;20139;-65
2022/02/06 06:53:46;;;;;;;2.75;0.85;;;6.60;78.90;;;;;;5009642;28;20045;-63
2022/02/06 06:56:17;;;;;;;2.42;0.57;;;6.50;78.80;;;;;;5007424;28;20045;-64
2022/02/06 06:58:48;;;;;;;4.18;0.98;;;6.60;78.90;;;;;;5004813;28;20045;-65
2022/02/06 07:04:01;;;;;;;1.38;0.65;;;6.60;79.00;;;;;;4993339;28;20286;-65
2022/02/06 07:06:28;;;;;;;1.83;0.52;;;6.60;78.70;;;;;;4991282;28;20082;-63
2022/02/06 07:08:55;;;;;;;3.40;1.10;;;6.60;78.90;;;;;;4993810;28;21885;-65
2022/02/06 07:11:22;;;;;;;2.22;0.50;;;6.60;78.90;;;;;;4988313;28;20049;-64
2022/02/06 07:13:49;;;;;;;1.13;0.43;;;6.60;79.00;;;;;;5001774;28;20053;-64
2022/02/06 07:16:17;;;;;;;2.75;0.77;;;6.60;79.00;;;;;;4989647;28;20212;-63
2022/02/06 07:18:45;;;;;;;1.25;0.30;;;6.60;79.10;;;;;;4986338;28;20502;-64
2022/02/06 07:21:14;;;;;;;2.47;0.52;;;6.60;78.90;;;;;;4985877;28;20623;-62
2022/02/06 07:23:41;;;;;;;3.17;0.40;;;6.60;79.00;;;;;;4988348;28;20050;-63
2022/02/06 07:26:14;;;;;;;3.20;0.32;;;6.60;79.00;;;;;;4987157;28;20050;-64
2022/02/06 07:28:47;;;;;;;1.95;0.70;;;6.60;79.00;;;;;;4987161;28;20046;-63
2022/02/06 07:31:14;;;;;;;1.05;0.50;;;6.60;78.90;;;;;;4988237;28;20061;-65
2022/02/06 07:33:41;;;;;;;2.15;0.38;;;6.60;78.80;;;;;;4984443;28;20243;-64
2022/02/06 07:36:08;;;;;;;1.83;0.85;;;6.60;79.00;;;;;;4988127;28;20349;-63
2022/02/06 07:38:36;;;;;;;1.88;0.93;;;6.60;79.00;;;;;;4986173;28;20050;-64
2022/02/06 07:41:03;;;;;;;2.65;1.10;;;6.60;79.10;;;;;;4990776;28;20050;-63
2022/02/06 07:43:30;;;;;;;1.48;0.65;;;6.60;79.00;;;;;;4990778;28;20046;-65
2022/02/06 07:45:57;;;;;;;2.15;0.70;;;6.60;79.20;;;;;;4991894;28;21332;-63
2022/02/06 07:48:24;;;;;;;3.95;0.70;;;6.60;79.20;;;;;;4990470;28;20441;-63
2022/02/06 07:50:51;;;;;;;3.92;1.00;;;6.60;79.30;;;;;;4990153;28;20487;-63
2022/02/06 07:53:19;;;;;;;4.25;0.50;;;6.70;79.30;;;;;;4989982;28;20235;-63
2022/02/06 07:55:47;;;;;;;1.17;0.45;;;6.60;79.20;;;;;;4987879;28;20050;-63
2022/02/06 07:58:14;;;;;;;0.82;0.57;;;6.60;79.40;;;;;;4991746;28;20475;-64
2022/02/06 08:00:41;;;;;;;1.33;0.50;;;6.60;79.40;;;;;;4986095;28;20053;-63
2022/02/06 08:03:10;;;;;;;1.73;0.40;;;6.60;79.50;;;;;;4991216;28;20192;-63
2022/02/06 08:05:37;;;;;;;3.67;0.90;;;6.70;79.50;;;;;;4991118;28;20060;-65
2022/02/06 08:08:11;;;;;;;3.83;0.73;;;6.70;79.40;;;;;;4987988;28;20056;-63
2022/02/06 08:10:38;;;;;;;1.58;0.43;;;6.70;79.30;;;;;;4989700;28;20089;-66
2022/02/06 08:13:10;;;;;;;1.35;0.63;;;6.70;79.50;;;;;;4986067;28;20411;-65
2022/02/06 08:15:37;;;;;;;2.97;0.50;;;6.70;79.60;;;;;;4988068;28;20476;-64
2022/02/06 08:18:05;;;;;;;3.80;0.82;;;6.70;79.70;;;;;;4987772;28;20065;-63
2022/02/06 08:20:33;;;;;;;1.88;0.57;;;6.70;79.70;;;;;;4990305;28;20060;-65
2022/02/06 08:23:00;;;;;;;5.50;0.80;;;6.70;79.80;;;;;;4990319;28;20056;-65
2022/02/06 08:25:28;;;;;;;1.08;0.93;;;6.60;80.00;;;;;;4989465;28;20057;-64
2022/02/06 08:27:55;;;;;;;1.35;0.52;;;6.70;80.10;;;;;;4987516;28;20056;-64
2022/02/06 08:30:38;;;;;;;1.57;0.30;;;6.70;80.10;;;;;;3046099;28;10002217;-65
2022/02/06 08:33:05;;;;;;;4.07;0.63;;;6.70;80.10;;;;;;2923237;28;10001565;-64
2022/02/06 08:35:32;;;;;;;2.90;0.80;;;6.70;80.20;;;;;;4989128;28;20052;-64
2022/02/06 08:37:59;;;;;;;1.60;0.40;;;6.60;80.40;;;;;;4988599;28;20186;-64
2022/02/06 08:40:26;;;;;;;3.05;0.57;;;6.70;80.30;;;;;;4986800;28;20051;-65
2022/02/06 08:42:53;;;;;;;5.20;0.90;;;6.60;80.40;;;;;;4989018;28;20152;-65
2022/02/06 08:45:22;;;;;;;5.15;0.77;;;6.70;80.40;;;;;;4989575;28;20042;-64
2022/02/06 08:47:51;;;;;;;4.07;1.00;;;6.60;80.50;;;;;;4988545;28;20057;-63
2022/02/06 08:50:18;;;;;;;3.75;0.45;;;6.60;80.60;;;;;;4986315;28;20048;-64
2022/02/06 08:52:45;;;;;;;2.13;1.23;;;6.60;80.70;;;;;;4989324;28;20042;-63
2022/02/06 08:55:13;;;;;;;2.92;0.73;;;6.60;80.80;;;;;;4990058;28;20056;-63
2022/02/06 08:57:47;;;;;;;2.85;0.57;;;6.70;80.80;;;;;;4988867;28;20042;-63
2022/02/06 09:00:15;;;;;;;2.45;0.75;;;6.70;80.80;;;;;;4988081;28;20100;-69
2022/02/06 09:02:44;;;;;;;1.75;0.40;;;6.60;80.90;;;;;;5008089;28;20049;-70
2022/02/06 09:05:13;;;;;;;3.93;0.77;;;6.60;81.10;;;;;;5008658;28;20049;-70
2022/02/06 09:07:41;;;;;;;0.90;0.50;;;6.60;81.20;;;;;;5006567;28;21737;-70
2022/02/06 09:10:09;;;;;;;4.32;0.60;;;6.70;81.30;;;;;;5007802;28;20037;-70
2022/02/06 09:12:40;;;;;;;2.00;0.47;;;6.60;81.30;;;;;;5007946;28;20120;-70
2022/02/06 09:15:09;;;;;;;3.58;0.75;;;6.60;81.40;;;;;;5008372;28;20398;-70
2022/02/06 09:17:36;;;;;;;1.50;0.60;;;6.60;81.50;;;;;;5008811;28;20637;-70
2022/02/06 09:20:04;;;;;;;4.88;0.80;;;6.60;81.50;;;;;;5008579;28;21499;-70
2022/02/06 09:22:33;;;;;;;1.77;0.50;;;6.60;81.70;;;;;;5008295;28;20046;-69
2022/02/06 09:25:00;;;;;;;1.20;0.73;;;6.60;81.80;;;;;;5007044;28;20056;-69
2022/02/06 09:27:29;;;;;;;3.63;0.88;;;6.60;81.80;;;;;;5007056;28;20057;-69
2022/02/06 09:29:56;;;;;;;3.58;0.88;;;6.70;81.80;;;;;;5008916;28;20484;-69
2022/02/06 09:37:15;;;;;;;0.98;0.30;;;6.70;81.80;;;;;;5007609;28;20468;-70
2022/02/06 09:39:43;;;;;;;2.63;0.75;;;6.70;81.70;;;;;;5008207;28;20049;-70
2022/02/06 09:42:12;;;;;;;3.30;1.05;;;6.70;81.70;;;;;;5006814;28;20056;-71
2022/02/06 09:44:42;;;;;;;0.77;0.38;;;6.70;81.80;;;;;;5006654;28;20141;-70
2022/02/06 09:47:10;;;;;;;;;;;6.70;82.00;;;;;;5007713;28;20392;-70
2022/02/06 09:49:37;;;;;;;2.55;0.93;;;6.70;81.90;;;;;;5004115;28;20456;-70
2022/02/06 09:52:04;;;;;;;2.58;0.40;;;6.70;81.90;;;;;;5008152;28;20378;-69
2022/02/06 09:54:31;;;;;;;1.77;0.40;;;6.80;81.90;;;;;;5004686;28;20321;-69
2022/02/06 09:57:10;;;;;;;2.97;0.63;;;6.70;82.00;;;;;;5006004;28;20053;-70
2022/02/06 09:59:38;;;;;;;1.60;0.57;;;6.70;82.00;;;;;;5004500;28;20409;-69
2022/02/06 10:02:05;;;;;;;1.45;0.35;;;6.70;82.20;;;;;;5002608;28;20060;-70
2022/02/06 10:04:35;;;;;;;1.83;0.50;;;6.70;82.40;;;;;;5007177;28;20044;-70
2022/02/06 10:07:06;;;;;;;3.72;0.60;;;6.70;82.30;;;;;;5004577;28;20261;-70
2022/02/06 10:09:39;;;;;;;1.50;0.80;;;6.70;82.40;;;;;;5004937;28;20069;-71
2022/02/06 10:12:10;;;;;;;5.30;1.25;;;6.70;82.50;;;;;;5006791;28;20519;-70
2022/02/06 10:14:37;;;;;;;1.20;0.60;;;6.70;82.50;;;;;;5006551;28;20038;-71
2022/02/06 10:17:05;;;;;;;1.80;0.60;;;6.70;82.70;;;;;;5006173;28;20140;-71
2022/02/06 10:19:34;;;;;;;1.35;0.43;;;6.70;82.70;;;;;;5006601;28;20503;-70
2022/02/06 10:22:21;;;;;;;4.30;0.75;;;6.70;82.80;;;;;;5005992;28;20517;-69
2022/02/06 10:24:59;;;;;;;2.67;0.85;;;6.70;83.00;;;;;;5003531;28;20183;-68
2022/02/06 10:27:47;;;;;;;2.05;0.70;;;6.70;83.00;;;;;;5006487;28;20041;-70
2022/02/06 10:30:36;;;;;;;0.90;0.37;;;6.70;83.20;;;;;;3734773;28;10149760;-70
2022/02/06 10:33:04;;;;;;;3.17;0.60;;;6.70;83.20;;;;;;3095063;28;10002082;-70
2022/02/06 10:35:35;;;;;;;0.77;0.50;;;6.70;83.40;;;;;;5004237;28;20045;-72
2022/02/06 10:38:14;;;;;;;1.38;0.50;;;6.70;83.60;;;;;;4989691;28;20071;-69
2022/02/06 10:40:42;;;;;;;2.90;0.57;;;6.70;83.60;;;;;;4992162;28;20053;-69
2022/02/06 10:43:11;;;;;;;4.03;1.15;;;6.70;83.70;;;;;;4988238;28;20046;-69
2022/02/06 10:45:39;;;;;;;6.35;0.85;;;6.70;83.80;;;;;;4995645;28;20500;-70
2022/02/06 10:48:21;;;;;;;6.18;1.48;;;6.70;84.00;;;;;;4994406;28;20042;-69
2022/02/06 10:50:48;;;;;;;4.88;1.10;;;6.70;83.90;;;;;;4993997;28;20046;-70
2022/02/06 10:53:17;;;;;;;4.13;1.00;;;6.80;83.90;;;;;;4994483;28;20129;-71
2022/02/06 10:55:56;;;;;;;4.00;0.77;;;6.80;83.90;;;;;;4993644;28;20050;-69
2022/02/06 10:58:28;;;;;;;2.70;0.93;;;6.80;84.00;;;;;;4992476;28;20041;-69
2022/02/06 11:00:56;;;;;;;3.40;0.60;;;6.80;84.20;;;;;;5004627;28;20045;-70
2022/02/06 11:03:28;;;;;;;1.55;0.40;;;6.70;84.30;;;;;;4988932;28;20037;-71
2022/02/06 11:06:06;;;;;;;2.17;0.68;;;6.70;84.40;;;;;;4987918;28;20042;-71
2022/02/06 11:08:34;;;;;;;3.63;0.50;;;6.80;84.40;;;;;;4987661;28;20100;-69
2022/02/06 11:11:04;;;;;;;2.30;0.68;;;6.70;84.60;;;;;;4988471;28;20049;-70
2022/02/06 11:13:33;;;;;;;0.68;0.32;;;6.70;84.60;;;;;;4985832;28;20546;-70
2022/02/06 11:16:04;;;;;;;1.35;0.40;;;6.70;84.60;;;;;;4986231;28;20095;-70
2022/02/06 11:18:39;;;;;;;0.52;0.30;;;6.80;84.60;;;;;;4989569;28;20052;-71
2022/02/06 11:21:08;;;;;;;2.22;0.47;;;6.80;84.60;;;;;;4987220;28;20050;-70
2022/02/06 11:23:50;;;;;;;1.80;0.57;;;6.80;84.60;;;;;;4989508;28;20421;-69
2022/02/06 11:26:18;;;;;;;1.10;0.45;;;6.80;84.70;;;;;;4988645;28;20042;-70
2022/02/06 11:28:47;;;;;;;1.92;0.70;;;6.80;84.70;;;;;;4987104;28;20050;-69
2022/02/06 11:31:16;;;;;;;0.98;0.45;;;6.80;84.70;;;;;;4986052;28;20148;-70
2022/02/06 11:33:44;;;;;;;2.47;0.68;;;6.80;84.80;;;;;;4986086;28;20053;-68
2022/02/06 11:36:16;;;;;;;1.77;0.50;;;6.80;84.70;;;;;;4987082;28;20117;-70
2022/02/06 11:44:52;;;;;;;2.53;0.77;;;6.80;84.90;;;;;;4986773;28;20053;-71
2022/02/06 11:47:23;;;;;;;2.80;0.55;;;6.90;84.70;;;;;;4989791;28;20042;-69
2022/02/06 11:49:54;;;;;;;1.65;0.60;;;6.90;84.50;;;;;;4992072;28;20386;-70
2022/02/06 11:52:21;;;;;;;;;;;6.90;84.60;;;;;;4990315;28;20052;-69
2022/02/06 11:54:49;;;;;;;1.50;0.45;;;6.90;84.80;;;;;;4992427;28;19929;-71
2022/02/06 11:57:23;;;;;;;3.60;0.73;;;6.90;84.70;;;;;;4991851;28;20073;-70
2022/02/06 12:00:19;;;;;;;1.50;0.73;;;6.90;84.60;;;;;;4987735;28;20050;-70
2022/02/06 12:02:49;;;;;;;1.23;0.73;;;6.90;84.60;;;;;;4984586;28;20407;-72
2022/02/06 12:05:23;;;;;;;2.27;0.60;;;6.90;84.70;;;;;;4985445;28;20049;-70
2022/02/06 12:08:09;;;;;;;2.45;0.52;;;6.90;84.90;;;;;;4985672;28;20053;-69
2022/02/06 12:11:16;;;;;;;1.30;0.70;;;6.90;84.80;;;;;;4988334;28;20045;-71
2022/02/06 12:13:43;;;;;;;1.55;0.80;;;6.90;85.00;;;;;;4988083;28;20038;-70
2022/02/06 12:16:25;;;;;;;1.48;0.60;;;6.90;85.10;;;;;;4987526;28;20447;-70
2022/02/06 12:18:52;;;;;;;2.47;0.63;;;6.90;85.10;;;;;;4988159;28;20041;-71
2022/02/06 12:21:21;;;;;;;0.63;0.32;;;6.90;85.10;;;;;;4988171;28;20046;-69
2022/02/06 12:23:51;;;;;;;1.52;0.60;;;6.80;85.20;;;;;;4989096;28;20050;-70
2022/02/06 12:26:46;;;;;;;1.80;0.40;;;6.80;85.40;;;;;;4991449;28;20135;-70
2022/02/06 12:29:17;;;;;;;1.90;0.47;;;6.80;85.30;;;;;;4925956;28;20061;-70
2022/02/06 12:32:03;;;;;;;1.45;0.50;;;6.80;85.20;;;;;;687451;28;10003734;-70
2022/02/06 12:37:34;;;;;;;0.82;0.40;;;6.80;85.20;;;;;;5010574;28;20045;-69
2022/02/06 12:40:06;;;;;;;2.80;0.50;;;6.80;85.30;;;;;;5009711;28;20049;-70
2022/02/06 12:42:36;;;;;;;3.95;0.50;;;6.90;85.20;;;;;;5011033;28;20662;-72
2022/02/06 12:45:06;;;;;;;0.73;0.30;;;6.80;85.40;;;;;;5012318;28;20097;-70
2022/02/06 12:47:40;;;;;;;1.17;0.30;;;6.80;85.30;;;;;;5011468;28;20057;-70
2022/02/06 12:50:19;;;;;;;0.80;0.20;;;6.80;85.30;;;;;;5009868;28;20065;-70
2022/02/06 12:52:46;;;;;;;1.75;0.38;;;6.80;85.30;;;;;;5011619;28;20069;-69
2022/02/06 12:55:14;;;;;;;0.65;0.30;;;6.80;85.10;;;;;;5011200;28;20047;-70
2022/02/06 12:57:46;;;;;;;1.40;0.40;;;6.80;85.10;;;;;;5009701;28;20045;-69
2022/02/06 13:00:25;;;;;;;0.63;0.32;;;6.80;85.10;;;;;;5005606;28;20136;-69
2022/02/06 13:02:55;;;;;;;1.15;0.40;;;6.70;85.20;;;;;;4989229;28;20050;-70
2022/02/06 13:05:22;;;;;;;2.72;0.38;;;6.70;85.20;;;;;;4986310;28;20157;-70
2022/02/06 13:07:50;;;;;;;0.63;0.28;;;6.70;85.20;;;;;;4987650;28;20196;-69
2022/02/06 13:10:17;;;;;;;1.00;0.28;;;6.70;85.30;;;;;;4988008;28;20054;-70
2022/02/06 13:12:51;;;;;;;1.50;0.20;;;6.70;85.40;;;;;;4988952;28;20050;-71
2022/02/06 13:18:20;;;;;;;0.28;0.10;;;6.70;85.50;;;;;;4985580;28;20049;-71
2022/02/06 13:21:03;;;;;;;4.65;0.40;;;6.70;85.60;;;;;;4987276;28;20065;-69
2022/02/06 13:23:52;;;;;;;0.15;0.13;;;6.70;85.60;;;;;;4989016;28;20125;-70
2022/02/06 13:26:25;;;;;;;1.85;0.40;;;6.70;85.40;;;;;;4992889;28;20196;-69
2022/02/06 13:29:00;;;;;;;0.90;0.60;;;6.70;85.50;;;;;;4990906;28;20049;-71
2022/02/06 13:31:47;;;;;;;0.88;0.22;;;6.70;85.50;;;;;;4991281;28;21692;-69
2022/02/06 13:34:26;;;;;;;0.60;0.17;;;6.70;85.50;;;;;;4984462;28;20161;-70
2022/02/06 13:37:04;;;;;;;1.38;0.80;;;6.70;85.40;;;;;;4991351;28;20042;-71
2022/02/06 13:39:36;;;;;;;1.30;0.35;;;6.70;85.30;;;;;;4986628;28;20586;-69
2022/02/06 13:42:16;;;;;;;0.40;0.28;;;6.70;85.30;;;;;;4988128;28;20377;-69
2022/02/06 13:44:45;;;;;;;0.90;0.30;;;6.70;85.40;;;;;;4988667;28;20053;-69
2022/02/06 13:47:12;;;;;;;1.10;0.32;;;6.70;85.30;;;;;;4988412;28;20041;-70
2022/02/06 13:49:45;;;;;;;0.17;0.10;;;6.70;85.30;;;;;;4986554;28;20050;-69
2022/02/06 13:52:13;;;;;;;0.40;0.25;;;6.70;85.30;;;;;;4987188;28;20053;-69
2022/02/06 13:54:47;;;;;;;1.17;0.28;;;6.70;85.30;;;;;;4989124;28;20619;-70
2022/02/06 13:57:14;;;;;;;0.35;0.20;;;6.70;85.40;;;;;;4989034;28;20045;-70
2022/02/06 13:59:42;;;;;;;1.35;0.32;;;6.70;85.40;;;;;;4988933;28;20050;-69
2022/02/06 14:02:11;;;;;;;0.98;0.20;;;6.70;85.40;;;;;;4986369;28;20060;-69
2022/02/06 14:04:41;;;;;;;0.60;0.20;;;6.70;85.50;;;;;;4991661;28;20042;-69
2022/02/06 14:07:14;;;;;;;43.88;15.15;;;6.70;85.60;;;;;;4990594;28;20042;-69
2022/02/06 14:10:00;;;;;;;51.80;19.50;;;6.70;85.30;;;;;;4988259;28;20104;-68
2022/02/06 14:12:46;;;;;;;16.55;7.68;;;6.70;85.10;;;;;;4989041;28;20049;-70
2022/02/06 14:15:21;;;;;;;9.00;4.35;;;6.70;85.20;;;;;;4988877;28;20053;-69
2022/02/06 14:17:49;;;;;;;5.40;2.30;;;6.70;85.20;;;;;;4990748;28;20042;-68
2022/02/06 14:20:23;;;;;;;2.42;1.35;;;6.70;85.20;;;;;;4987755;28;20093;-69
2022/02/06 14:22:54;;;;;;;3.78;1.70;;;6.70;85.20;;;;;;4996240;28;20139;-68
2022/02/06 14:25:25;;;;;;;;;;;6.70;85.20;;;;;;4989922;28;20164;-70
2022/02/06 14:27:52;;;;;;;5.18;1.75;;;6.80;84.90;;;;;;4976321;28;21482;-70
2022/02/06 14:30:39;;;;;;;3.10;1.60;;;6.70;84.90;;;;;;3847107;28;10001982;-70
2022/02/06 14:33:07;;;;;;;3.35;1.77;;;6.80;84.90;;;;;;2400049;28;10002008;-71
2022/02/06 14:35:42;;;;;;;2.92;1.23;;;6.80;84.90;;;;;;4987920;28;20046;-70
2022/02/06 14:38:18;;;;;;;4.65;2.08;;;6.80;84.80;;;;;;4987514;28;20099;-69
2022/02/06 14:40:52;;;;;;;3.42;1.55;;;6.80;84.80;;;;;;4988152;28;20128;-70
2022/02/06 14:43:35;;;;;;;1.80;1.10;;;6.70;84.90;;;;;;4987256;28;20054;-71
2022/02/06 14:46:02;;;;;;;2.58;1.30;;;6.70;84.80;;;;;;4994393;28;20049;-69
2022/02/06 14:48:31;;;;;;;2.72;0.70;;;6.70;84.80;;;;;;4991393;28;20132;-71